This is the latest recevied weather packets stored in our database for station/object KE8WMS. If no packets are shown the sender has not sent any weather packets the latest 10 day(s).
| Time | Temp. | Humidity | Pressure | Rain* | Wind** | Luminosity | Snow |
|---|---|---|---|---|---|---|---|
| 1777851962 | 14.44° C | 42% | 1008.6 hPa | 0 mm | - | 25 W/m² | - |
| 1777851660 | 15° C | 42% | 1008.7 hPa | 0 mm | - | 28 W/m² | - |
| 1777851357 | 15° C | 41% | 1008.6 hPa | 0 mm | - | 30 W/m² | - |
| 1777851052 | 15° C | 42% | 1008.7 hPa | 0 mm | - | 34 W/m² | - |
| 1777850750 | 15° C | 42% | 1008.6 hPa | 0 mm | - | 37 W/m² | - |
| 1777850447 | 15° C | 42% | 1008.7 hPa | 0 mm | - | 39 W/m² | - |
| 1777850145 | 15° C | 42% | 1009.1 hPa | 0 mm | - | 44 W/m² | - |
| 1777849841 | 15° C | 42% | 1008.8 hPa | 0 mm | - | 54 W/m² | - |
| 1777849538 | 15° C | 42% | 1008.9 hPa | 0 mm | - | 59 W/m² | - |
| 1777849236 | 15° C | 42% | 1008.6 hPa | 0 mm | - | 65 W/m² | - |
| 1777848932 | 15° C | 42% | 1008.9 hPa | 0 mm | - | 72 W/m² | - |
| 1777848627 | 15° C | 42% | 1008.9 hPa | 0 mm | - | 59 W/m² | - |
| 1777848325 | 15° C | 41% | 1008.7 hPa | 0 mm | - | 59 W/m² | - |
| 1777848023 | 15° C | 41% | 1008.7 hPa | 0 mm | - | 66 W/m² | - |
| 1777847720 | 15.56° C | 41% | 1008.9 hPa | 0 mm | - | 76 W/m² | - |
| 1777847416 | 15.56° C | 41% | 1009.1 hPa | 0 mm | - | 76 W/m² | - |
| 1777847114 | 15.56° C | 41% | 1009.1 hPa | 0 mm | - | 116 W/m² | - |
| 1777846812 | 15.56° C | 41% | 1008.9 hPa | 0 mm | - | 103 W/m² | - |
| 1777846510 | 15.56° C | 41% | 1009 hPa | 0 mm | - | 121 W/m² | - |
| 1777846207 | 15.56° C | 40% | 1009 hPa | 0 mm | - | 105 W/m² | - |
| 1777845903 | 16.11° C | 41% | 1009.2 hPa | 0 mm | - | 125 W/m² | - |
| 1777845600 | 16.67° C | 39% | 1008.9 hPa | 0 mm | - | 126 W/m² | - |
| 1777845297 | 16.11° C | 42% | 1009.1 hPa | 0 mm | - | 251 W/m² | - |
| 1777844994 | 16.67° C | 39% | 1009.3 hPa | 0 mm | - | 155 W/m² | - |
| 1777844692 | 16.67° C | 39% | 1009.2 hPa | 0 mm | - | 333 W/m² | - |
* Rain latest hour (hover to see other rain measurements)
** Current wind speed in m/s (hover to see current wind gust speed)